createdAt,value
2023-04-22T00:02:24.338Z,10.10
2023-04-22T00:04:51.598Z,9.43
2023-04-22T00:07:18.739Z,9.30
2023-04-22T00:09:45.994Z,9.65
2023-04-22T00:12:13.122Z,9.15
2023-04-22T00:14:40.141Z,8.68
2023-04-22T00:17:07.159Z,9.23
2023-04-22T00:19:35.040Z,9.65
2023-04-22T00:22:03.876Z,8.32
2023-04-22T00:24:30.765Z,9.30
2023-04-22T00:26:57.621Z,9.05
2023-04-22T00:29:25.963Z,8.60
2023-04-22T00:31:52.873Z,8.48
2023-04-22T00:34:19.786Z,9.32
2023-04-22T00:36:46.792Z,8.57
2023-04-22T00:39:14.162Z,8.45
2023-04-22T00:41:41.204Z,7.80
2023-04-22T00:44:11.106Z,8.40
2023-04-22T00:46:41.204Z,8.85
2023-04-22T00:49:08.765Z,8.73
2023-04-22T00:51:35.936Z,8.90
2023-04-22T00:54:04.579Z,8.52
2023-04-22T00:56:35.823Z,8.30
2023-04-22T00:59:02.906Z,9.07
2023-04-22T01:01:30.788Z,8.55
2023-04-22T01:03:58.587Z,8.68
2023-04-22T01:06:28.104Z,8.55
2023-04-22T01:08:56.200Z,8.75
2023-04-22T01:11:23.424Z,7.68
2023-04-22T01:13:51.451Z,8.40
2023-04-22T01:16:18.810Z,8.18
2023-04-22T01:18:46.217Z,8.20
2023-04-22T01:21:13.032Z,8.60
2023-04-22T01:23:40.037Z,8.63
2023-04-22T01:26:07.135Z,8.30
2023-04-22T01:28:34.208Z,8.32
2023-04-22T01:31:01.184Z,8.07
2023-04-22T01:33:28.482Z,8.07
2023-04-22T01:35:55.486Z,8.30
2023-04-22T01:38:22.966Z,8.15
2023-04-22T01:40:51.120Z,8.88
2023-04-22T01:43:17.872Z,7.63
2023-04-22T01:45:44.727Z,8.60
2023-04-22T01:48:11.580Z,8.32
2023-04-22T01:50:38.562Z,8.57
2023-04-22T01:53:07.596Z,8.80
2023-04-22T01:55:36.191Z,8.07
2023-04-22T01:58:04.261Z,8.77
2023-04-22T02:00:31.776Z,8.48
2023-04-22T02:02:58.723Z,8.20
2023-04-22T02:05:27.339Z,8.35
2023-04-22T02:07:54.722Z,7.32
2023-04-22T02:10:21.760Z,8.63
2023-04-22T02:12:48.576Z,8.77
2023-04-22T02:15:15.608Z,8.32
2023-04-22T02:17:43.476Z,8.25
2023-04-22T02:20:13.245Z,8.60
2023-04-22T02:22:43.562Z,9.10
2023-04-22T02:25:12.185Z,8.23
2023-04-22T02:27:39.389Z,8.73
2023-04-22T02:30:07.677Z,7.93
2023-04-22T02:32:36.912Z,8.07
2023-04-22T02:35:05.273Z,7.88
2023-04-22T02:37:32.131Z,8.15
2023-04-22T02:39:58.968Z,7.75
2023-04-22T02:42:25.801Z,7.78
2023-04-22T02:44:52.655Z,7.55
2023-04-22T02:47:21.064Z,8.55
2023-04-22T02:49:48.695Z,9.02
2023-04-22T02:52:15.550Z,7.63
2023-04-22T02:54:42.445Z,8.18
2023-04-22T02:57:09.361Z,8.73
2023-04-22T02:59:37.353Z,8.68
2023-04-22T03:02:06.939Z,8.52
2023-04-22T03:05:03.019Z,8.65
2023-04-22T03:07:30.797Z,8.85
2023-04-22T03:09:58.420Z,8.52
2023-04-22T03:12:25.780Z,8.70
2023-04-22T03:14:52.610Z,8.25
2023-04-22T03:17:20.985Z,8.48
2023-04-22T03:19:48.027Z,8.95
2023-04-22T03:22:15.235Z,8.20
2023-04-22T03:24:42.627Z,7.80
2023-04-22T03:27:11.126Z,8.30
2023-04-22T03:29:38.217Z,7.57
2023-04-22T03:32:05.460Z,8.15
2023-04-22T03:34:33.616Z,8.80
2023-04-22T03:37:01.527Z,8.40
2023-04-22T03:39:28.378Z,9.50
2023-04-22T03:41:55.455Z,9.75
2023-04-22T03:44:22.464Z,9.50
2023-04-22T03:46:49.391Z,9.70
2023-04-22T03:49:23.737Z,9.88
2023-04-22T03:51:50.556Z,9.52
2023-04-22T03:54:21.379Z,9.52
2023-04-22T03:56:51.781Z,9.60
2023-04-22T03:59:21.045Z,10.00
2023-04-22T04:01:50.813Z,11.10
2023-04-22T04:04:20.890Z,9.52
2023-04-22T04:06:56.469Z,10.20
2023-04-22T04:09:23.281Z,9.65
2023-04-22T04:11:50.052Z,10.48
2023-04-22T04:14:17.962Z,10.68
2023-04-22T04:16:50.433Z,10.15
2023-04-22T04:19:25.894Z,10.90
2023-04-22T04:21:52.754Z,11.00
2023-04-22T04:24:20.966Z,11.10
2023-04-22T04:26:51.114Z,11.52
2023-04-22T04:29:23.762Z,10.90
2023-04-22T04:32:01.239Z,11.60
2023-04-22T04:34:28.881Z,11.43
2023-04-22T04:36:56.935Z,11.32
2023-04-22T04:39:32.898Z,11.50
2023-04-22T04:42:01.531Z,11.60
2023-04-22T04:44:33.712Z,10.88
2023-04-22T04:47:04.178Z,11.25
2023-04-22T04:49:31.560Z,10.48
2023-04-22T04:52:01.759Z,11.32
2023-04-22T04:54:28.838Z,10.35
2023-04-22T04:56:57.380Z,10.57
2023-04-22T04:59:24.945Z,11.02
2023-04-22T05:01:52.751Z,10.48
2023-04-22T05:04:20.316Z,10.57
2023-04-22T05:06:48.210Z,11.68
2023-04-22T05:09:15.060Z,10.70
2023-04-22T05:11:43.034Z,11.63
2023-04-22T05:14:14.942Z,12.13
2023-04-22T05:16:43.178Z,11.55
2023-04-22T05:19:10.482Z,12.77
2023-04-22T05:21:37.567Z,11.68
2023-04-22T05:24:04.795Z,11.75
2023-04-22T05:26:32.072Z,12.02
2023-04-22T05:28:59.852Z,12.75
2023-04-22T05:31:27.053Z,11.32
2023-04-22T05:33:54.020Z,11.93
2023-04-22T05:36:22.108Z,12.13
2023-04-22T05:38:48.968Z,12.02
2023-04-22T05:41:16.679Z,12.25
2023-04-22T05:43:43.517Z,11.93
2023-04-22T05:46:15.581Z,12.88
2023-04-22T05:48:44.241Z,13.10
2023-04-22T05:51:27.190Z,11.75
2023-04-22T05:53:54.095Z,12.23
2023-04-22T05:56:21.443Z,12.77
2023-04-22T05:58:48.385Z,13.27
2023-04-22T06:01:18.456Z,13.25
2023-04-22T06:03:57.311Z,13.38
2023-04-22T06:06:25.997Z,12.98
2023-04-22T06:08:53.316Z,13.70
2023-04-22T06:11:20.574Z,13.35
2023-04-22T06:13:47.532Z,13.85
2023-04-22T06:16:14.686Z,14.20
2023-04-22T06:18:43.409Z,15.00
2023-04-22T06:21:12.238Z,15.98
2023-04-22T06:23:39.972Z,16.58
2023-04-22T06:26:06.922Z,16.17
2023-04-22T06:28:35.593Z,15.65
2023-04-22T06:31:07.088Z,15.77
2023-04-22T06:33:33.975Z,15.93
2023-04-22T06:36:02.056Z,18.60
2023-04-22T06:38:31.425Z,18.60
2023-04-22T06:41:17.758Z,17.90
2023-04-22T06:43:49.723Z,19.38
2023-04-22T06:46:17.650Z,18.77
2023-04-22T06:48:53.348Z,18.95
2023-04-22T06:51:28.978Z,19.02
2023-04-22T06:53:58.126Z,19.55
2023-04-22T06:56:25.716Z,18.75
2023-04-22T06:58:52.549Z,20.33
2023-04-22T07:01:19.589Z,20.00
2023-04-22T07:03:47.538Z,20.33
2023-04-22T07:06:15.409Z,20.58
2023-04-22T07:08:42.465Z,18.83
2023-04-22T07:11:13.102Z,19.67
2023-04-22T07:14:01.471Z,20.38
2023-04-22T07:16:28.680Z,20.05
2023-04-22T07:18:55.615Z,21.25
2023-04-22T07:21:22.712Z,19.10
2023-04-22T07:23:49.650Z,18.73
2023-04-22T07:26:16.574Z,18.83
2023-04-22T07:28:43.433Z,18.17
2023-04-22T07:31:10.492Z,18.58
2023-04-22T07:33:37.348Z,17.17
2023-04-22T07:36:04.901Z,17.73
2023-04-22T07:38:31.824Z,16.77
2023-04-22T07:40:58.581Z,16.63
2023-04-22T07:43:25.522Z,16.20
2023-04-22T07:45:52.499Z,15.10
2023-04-22T07:48:19.459Z,15.95
2023-04-22T07:50:46.254Z,15.27
2023-04-22T07:53:15.342Z,14.88
2023-04-22T07:55:42.198Z,16.45
2023-04-22T07:58:09.088Z,14.77
2023-04-22T08:00:35.996Z,14.88
2023-04-22T08:03:03.999Z,14.18
2023-04-22T08:05:31.127Z,13.85
2023-04-22T08:07:57.983Z,13.70
2023-04-22T08:10:25.266Z,13.70
2023-04-22T08:12:52.198Z,13.05
2023-04-22T08:15:19.208Z,13.40
2023-04-22T08:17:46.338Z,12.73
2023-04-22T08:20:15.293Z,12.85
2023-04-22T08:22:42.929Z,12.93
2023-04-22T08:25:10.014Z,12.15
2023-04-22T08:27:38.296Z,13.07
2023-04-22T08:30:07.334Z,11.90
2023-04-22T08:32:34.555Z,12.15
2023-04-22T08:35:04.796Z,11.27
2023-04-22T08:37:32.551Z,10.75
2023-04-22T08:39:59.498Z,11.85
2023-04-22T08:42:27.699Z,11.25
2023-04-22T08:44:55.025Z,11.55
2023-04-22T08:47:21.983Z,11.82
2023-04-22T08:49:53.089Z,11.25
2023-04-22T08:52:20.040Z,11.05
2023-04-22T08:54:46.927Z,11.40
2023-04-22T08:57:16.408Z,10.73
2023-04-22T08:59:43.533Z,10.35
2023-04-22T09:02:21.958Z,9.52
2023-04-22T09:04:53.910Z,10.00
2023-04-22T09:07:32.093Z,10.15
2023-04-22T09:09:59.486Z,10.10
2023-04-22T09:12:26.569Z,9.93
2023-04-22T09:14:54.631Z,10.07
2023-04-22T09:17:33.105Z,9.70
2023-04-22T09:20:06.081Z,9.60
2023-04-22T09:22:47.016Z,8.65
2023-04-22T09:25:18.317Z,8.98
2023-04-22T09:27:53.899Z,8.32
2023-04-22T09:30:38.373Z,8.55
2023-04-22T09:33:08.340Z,8.50
2023-04-22T09:35:41.176Z,8.50
2023-04-22T09:38:11.664Z,7.43
2023-04-22T09:40:43.155Z,7.78
2023-04-22T09:43:10.763Z,7.65
2023-04-22T09:45:43.065Z,7.80
2023-04-22T09:48:14.755Z,7.82
2023-04-22T09:50:47.166Z,7.57
2023-04-22T09:53:21.934Z,7.18
2023-04-22T09:55:53.591Z,7.03
2023-04-22T09:58:27.551Z,8.70
2023-04-22T10:00:57.930Z,7.97
2023-04-22T10:03:25.034Z,7.68
2023-04-22T10:05:52.250Z,8.50
2023-04-22T10:08:19.195Z,8.10
2023-04-22T10:10:46.918Z,6.55
2023-04-22T10:13:13.735Z,6.05
2023-04-22T10:15:53.033Z,7.32
2023-04-22T10:18:29.529Z,7.63
2023-04-22T10:20:59.119Z,7.78
2023-04-22T10:23:26.075Z,8.55
2023-04-22T10:28:27.582Z,7.45
2023-04-22T10:30:54.425Z,6.55
2023-04-22T10:33:21.461Z,5.97
2023-04-22T10:36:15.727Z,6.05
2023-04-22T10:39:02.542Z,6.32
2023-04-22T10:41:38.739Z,6.53
2023-04-22T10:44:08.283Z,7.22
2023-04-22T10:46:37.222Z,7.65
2023-04-22T10:49:09.206Z,8.00
2023-04-22T10:51:40.372Z,7.47
2023-04-22T10:54:30.999Z,6.90
2023-04-22T10:57:03.458Z,8.48
2023-04-22T10:59:32.756Z,9.13
2023-04-22T11:02:06.891Z,10.57
2023-04-22T11:04:34.757Z,9.40
2023-04-22T11:07:20.645Z,9.10
2023-04-22T11:09:52.088Z,9.77
2023-04-22T11:12:39.910Z,9.15
2023-04-22T11:15:19.926Z,10.10
2023-04-22T11:17:52.005Z,9.80
2023-04-22T11:20:19.661Z,10.55
2023-04-22T11:22:53.850Z,10.23
2023-04-22T11:25:22.460Z,10.00
2023-04-22T11:27:49.680Z,9.93
2023-04-22T11:30:22.701Z,9.75
2023-04-22T11:32:57.169Z,9.32
2023-04-22T11:35:31.232Z,9.88
2023-04-22T11:38:08.591Z,10.13
2023-04-22T11:40:45.143Z,9.50
2023-04-22T11:43:13.912Z,9.27
2023-04-22T11:45:41.159Z,9.45
2023-04-22T11:48:11.295Z,10.52
2023-04-22T11:50:41.327Z,10.50
2023-04-22T11:53:24.065Z,10.93
2023-04-22T11:55:52.068Z,9.55
2023-04-22T11:58:27.107Z,11.02
2023-04-22T12:00:57.649Z,11.18
2023-04-22T12:03:27.991Z,11.20
2023-04-22T12:06:01.402Z,11.95
2023-04-22T12:08:36.618Z,12.80
2023-04-22T12:11:08.381Z,11.35
2023-04-22T12:13:37.935Z,12.02
2023-04-22T12:16:12.415Z,12.43
2023-04-22T12:18:53.502Z,13.23
2023-04-22T12:21:24.691Z,12.32
2023-04-22T12:23:54.937Z,11.88
2023-04-22T12:26:26.531Z,12.27
2023-04-22T12:28:55.724Z,14.73
2023-04-22T12:31:22.612Z,12.95
2023-04-22T12:33:49.759Z,13.15
2023-04-22T12:36:17.800Z,12.27
2023-04-22T12:38:44.590Z,13.00
2023-04-22T12:41:11.453Z,11.98
2023-04-22T12:43:39.391Z,13.07
2023-04-22T12:46:08.293Z,12.80
2023-04-22T12:48:38.591Z,13.57
2023-04-22T12:51:06.828Z,13.60
2023-04-22T12:53:34.525Z,12.75
2023-04-22T12:56:01.565Z,12.82
2023-04-22T12:58:28.560Z,13.63
2023-04-22T13:00:55.380Z,13.40
2023-04-22T13:03:22.388Z,14.35
2023-04-22T13:05:49.419Z,12.95
2023-04-22T13:08:17.261Z,12.88
2023-04-22T13:10:44.172Z,13.27
2023-04-22T13:13:18.559Z,13.15
2023-04-22T13:15:53.821Z,13.23
2023-04-22T13:18:23.266Z,14.05
2023-04-22T13:20:51.109Z,13.80
2023-04-22T13:23:19.751Z,13.77
2023-04-22T13:25:47.726Z,14.40
2023-04-22T13:28:14.561Z,13.20
2023-04-22T13:30:42.403Z,14.40
2023-04-22T13:33:09.361Z,14.85
2023-04-22T13:35:36.894Z,15.38
2023-04-22T13:38:03.809Z,14.63
2023-04-22T13:40:30.692Z,15.82
2023-04-22T13:42:57.765Z,14.63
2023-04-22T13:45:25.565Z,14.85
2023-04-22T13:47:54.214Z,15.18
2023-04-22T13:50:21.134Z,14.27
2023-04-22T13:52:48.139Z,14.18
2023-04-22T13:55:15.188Z,26.20
2023-04-22T13:57:42.207Z,17.52
2023-04-22T14:00:09.712Z,15.65
2023-04-22T14:02:39.378Z,14.57
2023-04-22T14:05:07.448Z,14.23
2023-04-22T14:07:34.280Z,31.98
2023-04-22T14:10:01.062Z,27.27
2023-04-22T14:12:28.457Z,29.98
2023-04-22T14:14:55.601Z,19.92
2023-04-22T14:17:23.794Z,17.05
2023-04-22T14:19:50.580Z,17.45
2023-04-22T14:22:17.380Z,17.73
2023-04-22T14:24:44.608Z,20.45
2023-04-22T14:27:12.616Z,18.88
2023-04-22T14:29:40.263Z,18.65
2023-04-22T14:32:07.494Z,20.15
2023-04-22T14:34:34.333Z,19.05
2023-04-22T14:37:01.079Z,18.83
2023-04-22T14:39:27.913Z,17.70
2023-04-22T14:41:55.328Z,18.10
2023-04-22T14:44:22.239Z,18.58
2023-04-22T14:46:49.072Z,19.00
2023-04-22T14:49:15.967Z,18.80
2023-04-22T14:51:42.855Z,22.10
2023-04-22T14:54:09.679Z,19.55
2023-04-22T14:56:36.643Z,18.50
2023-04-22T14:59:03.402Z,18.35
2023-04-22T15:01:31.990Z,18.30
2023-04-22T15:03:59.109Z,18.80
2023-04-22T15:06:27.490Z,18.65
2023-04-22T15:08:55.848Z,18.20
2023-04-22T15:11:22.656Z,18.40
2023-04-22T15:13:49.464Z,19.55
2023-04-22T15:16:16.502Z,19.50
2023-04-22T15:18:43.398Z,20.23
2023-04-22T15:21:10.649Z,19.95
2023-04-22T15:23:37.672Z,20.88
2023-04-22T15:26:04.772Z,20.80
2023-04-22T15:28:31.617Z,21.17
2023-04-22T15:30:58.469Z,21.17
2023-04-22T15:33:25.273Z,20.60
2023-04-22T15:35:52.079Z,21.23
2023-04-22T15:38:19.069Z,22.65
2023-04-22T15:40:46.249Z,22.25
2023-04-22T15:43:13.062Z,21.77
2023-04-22T15:45:40.011Z,21.65
2023-04-22T15:48:07.140Z,20.70
2023-04-22T15:50:34.080Z,20.55
2023-04-22T15:53:01.035Z,20.95
2023-04-22T15:55:27.906Z,22.02
2023-04-22T15:57:54.676Z,21.92
2023-04-22T16:00:21.524Z,21.17
2023-04-22T16:02:55.366Z,21.98
2023-04-22T16:05:24.588Z,18.40
2023-04-22T16:07:53.496Z,16.80
2023-04-22T16:10:21.185Z,23.30
2023-04-22T16:12:49.343Z,21.25
2023-04-22T16:15:16.607Z,18.10
2023-04-22T16:17:44.139Z,18.83
2023-04-22T16:20:11.503Z,18.85
2023-04-22T16:22:38.412Z,18.35
2023-04-22T16:25:06.586Z,18.25
2023-04-22T16:27:33.516Z,17.95
2023-04-22T16:30:00.459Z,18.27
2023-04-22T16:32:27.360Z,17.88
2023-04-22T16:34:54.154Z,18.70
2023-04-22T16:37:20.889Z,18.05
2023-04-22T16:39:47.672Z,16.58
2023-04-22T16:42:14.759Z,17.13
2023-04-22T16:44:41.570Z,17.70
2023-04-22T16:47:08.610Z,18.63
2023-04-22T16:49:35.544Z,18.05
2023-04-22T16:52:02.457Z,17.67
2023-04-22T16:54:29.736Z,18.42
2023-04-22T16:56:57.448Z,17.73
2023-04-22T16:59:24.266Z,18.13
2023-04-22T17:01:51.337Z,18.58
2023-04-22T17:04:18.665Z,17.80
2023-04-22T17:06:46.053Z,19.42
2023-04-22T17:09:12.929Z,18.30
2023-04-22T17:11:39.819Z,18.85
2023-04-22T17:14:06.632Z,18.98
2023-04-22T17:16:33.465Z,18.65
2023-04-22T17:19:00.438Z,19.05
2023-04-22T17:21:27.964Z,18.75
2023-04-22T17:23:55.319Z,18.45
2023-04-22T17:26:22.241Z,18.80
2023-04-22T17:28:49.069Z,19.40
2023-04-22T17:31:16.332Z,20.38
2023-04-22T17:33:43.419Z,19.95
2023-04-22T17:36:10.332Z,19.20
2023-04-22T17:38:37.103Z,21.05
2023-04-22T17:41:04.136Z,21.10
2023-04-22T17:43:31.006Z,21.52
2023-04-22T17:45:58.011Z,20.85
2023-04-22T17:48:24.912Z,21.33
2023-04-22T17:50:51.801Z,21.35
2023-04-22T17:53:18.676Z,19.98
2023-04-22T17:55:45.766Z,20.15
2023-04-22T17:58:12.576Z,22.42
2023-04-22T18:00:39.648Z,22.25
2023-04-22T18:03:06.752Z,21.00
2023-04-22T18:05:33.651Z,22.55
2023-04-22T18:08:04.341Z,21.60
2023-04-22T18:10:31.531Z,19.65
2023-04-22T18:12:58.394Z,18.45
2023-04-22T18:15:25.270Z,17.85
2023-04-22T18:17:52.458Z,18.92
2023-04-22T18:20:19.842Z,19.88
2023-04-22T18:22:51.550Z,19.02
2023-04-22T18:25:18.558Z,18.55
2023-04-22T18:27:45.461Z,19.42
2023-04-22T18:30:12.544Z,19.50
2023-04-22T18:32:39.663Z,19.52
2023-04-22T18:35:07.515Z,19.67
2023-04-22T18:37:34.809Z,19.77
2023-04-22T18:40:02.762Z,20.70
2023-04-22T18:42:30.124Z,21.10
2023-04-22T18:44:56.984Z,20.25
2023-04-22T18:47:23.759Z,19.60
2023-04-22T18:49:50.811Z,20.73
2023-04-22T18:52:18.086Z,20.02
2023-04-22T18:54:44.865Z,19.60
2023-04-22T18:57:12.020Z,20.42
2023-04-22T18:59:39.569Z,19.55
2023-04-22T19:02:06.480Z,19.85
2023-04-22T19:04:33.385Z,19.85
2023-04-22T19:07:00.925Z,21.80
2023-04-22T19:09:27.850Z,20.42
2023-04-22T19:11:55.642Z,21.48
2023-04-22T19:14:22.578Z,21.38
2023-04-22T19:16:49.556Z,20.48
2023-04-22T19:19:16.383Z,22.15
2023-04-22T19:21:43.296Z,21.77
2023-04-22T19:24:10.202Z,20.38
2023-04-22T19:26:37.028Z,22.23
2023-04-22T19:29:03.876Z,21.85
2023-04-22T19:31:30.948Z,23.83
2023-04-22T19:33:57.984Z,22.85
2023-04-22T19:36:24.902Z,21.45
2023-04-22T19:38:51.749Z,22.90
2023-04-22T19:41:18.547Z,21.88
2023-04-22T19:43:45.984Z,23.70
2023-04-22T19:46:12.816Z,22.25
2023-04-22T19:48:40.612Z,23.20
2023-04-22T19:51:07.853Z,24.63
2023-04-22T19:53:35.539Z,23.15
2023-04-22T19:56:03.125Z,22.65
2023-04-22T19:58:31.561Z,22.30
2023-04-22T20:00:58.652Z,22.35
2023-04-22T20:03:26.320Z,24.08
2023-04-22T20:05:55.033Z,22.63
2023-04-22T20:08:27.290Z,23.73
2023-04-22T20:10:55.219Z,23.13
2023-04-22T20:13:22.634Z,21.92
2023-04-22T20:15:50.144Z,22.67
2023-04-22T20:18:17.663Z,22.50
2023-04-22T20:20:49.738Z,22.02
2023-04-22T20:23:21.866Z,22.10
2023-04-22T20:25:50.950Z,22.52
2023-04-22T20:28:18.728Z,24.27
2023-04-22T20:30:46.639Z,23.92
2023-04-22T20:33:15.850Z,24.00
2023-04-22T20:35:43.705Z,21.65
2023-04-22T20:38:13.295Z,22.63
2023-04-22T20:40:41.334Z,24.73
2023-04-22T20:43:08.399Z,25.05
2023-04-22T20:45:35.239Z,22.80
2023-04-22T20:48:02.327Z,23.60
2023-04-22T20:50:33.198Z,24.95
2023-04-22T20:53:00.859Z,26.70
2023-04-22T20:55:27.711Z,25.85
2023-04-22T20:57:54.986Z,26.33
2023-04-22T21:00:22.263Z,27.48
2023-04-22T21:02:50.290Z,26.40
2023-04-22T21:05:17.884Z,26.05
2023-04-22T21:07:52.275Z,25.65
2023-04-22T21:10:22.754Z,26.77
2023-04-22T21:12:50.289Z,25.65
2023-04-22T21:15:17.571Z,24.80
2023-04-22T21:17:51.903Z,24.60
2023-04-22T21:20:20.531Z,25.63
2023-04-22T21:22:48.345Z,26.25
2023-04-22T21:25:22.255Z,25.23
2023-04-22T21:27:49.522Z,24.48
2023-04-22T21:30:16.992Z,26.13
2023-04-22T21:32:44.090Z,27.92
2023-04-22T21:35:11.298Z,26.65
2023-04-22T21:37:38.102Z,27.15
2023-04-22T21:40:11.428Z,25.58
2023-04-22T21:42:38.373Z,26.52
2023-04-22T21:45:06.060Z,26.73
2023-04-22T21:47:32.816Z,28.58
2023-04-22T21:49:59.613Z,27.90
2023-04-22T21:52:26.781Z,27.48
2023-04-22T21:54:53.643Z,29.25
2023-04-22T21:57:20.487Z,29.33
2023-04-22T21:59:47.222Z,33.03
2023-04-22T22:02:14.015Z,36.17
2023-04-22T22:04:41.076Z,31.95
2023-04-22T22:07:08.224Z,35.33
2023-04-22T22:09:35.050Z,37.28
2023-04-22T22:12:01.901Z,36.55
2023-04-22T22:14:28.657Z,37.72
2023-04-22T22:16:55.614Z,36.80
2023-04-22T22:19:22.631Z,36.97
2023-04-22T22:21:49.435Z,38.85
2023-04-22T22:24:16.274Z,37.97
2023-04-22T22:26:43.265Z,39.50
2023-04-22T22:29:15.248Z,38.95
2023-04-22T22:31:44.211Z,38.85
2023-04-22T22:34:11.459Z,38.83
2023-04-22T22:36:38.274Z,38.15
2023-04-22T22:39:05.368Z,37.95
2023-04-22T22:41:32.195Z,38.15
2023-04-22T22:43:59.118Z,38.53
2023-04-22T22:46:26.009Z,36.95
2023-04-22T22:48:52.922Z,38.22
2023-04-22T22:51:19.665Z,38.05
2023-04-22T22:53:46.561Z,36.58
2023-04-22T22:56:15.255Z,37.45
2023-04-22T22:58:42.084Z,39.67
2023-04-22T23:01:08.931Z,36.75
2023-04-22T23:03:37.177Z,37.38
2023-04-22T23:06:04.644Z,38.38
2023-04-22T23:08:31.444Z,37.40
2023-04-22T23:10:58.200Z,39.03
2023-04-22T23:13:24.940Z,38.78
2023-04-22T23:15:51.739Z,38.65
2023-04-22T23:18:18.749Z,37.95
2023-04-22T23:20:47.124Z,37.17
2023-04-22T23:23:17.734Z,37.72
2023-04-22T23:25:46.676Z,37.67
2023-04-22T23:28:14.114Z,40.20
2023-04-22T23:30:42.313Z,39.28
2023-04-22T23:33:12.566Z,40.00
2023-04-22T23:35:42.809Z,41.47
2023-04-22T23:38:11.650Z,38.85
2023-04-22T23:40:38.419Z,41.13
2023-04-22T23:43:05.174Z,39.22
2023-04-22T23:45:31.976Z,42.55
2023-04-22T23:47:58.807Z,40.45
2023-04-22T23:50:25.768Z,41.75
2023-04-22T23:52:52.635Z,39.55
2023-04-22T23:55:19.977Z,38.35
2023-04-22T23:57:47.287Z,38.03
